Time;durP1;ratioP1;P1;durP2;ratioP2;P2;SDS_P1;SDS_P2;PMS_P1;PMS_P2;Temp;Humidity;BMP_temperature;BMP_pressure;BME280_temperature;BME280_humidity;BME280_pressure;Samples;Min_cycle;Max_cycle;Signal;HPM_P1;HPM_P2
2023/12/11 00:00:32;;;;;;;60.97;9.87;;;8.30;99.90;;;;;;5096085;28;20055;-70
2023/12/11 00:06:38;;;;;;;59.20;9.40;;;8.40;99.90;;;;;;5342963;22;20298;-68
2023/12/11 00:09:04;;;;;;;48.17;7.27;;;8.40;99.90;;;;;;5335155;22;20302;-68
2023/12/11 00:11:30;;;;;;;61.33;9.40;;;8.30;99.90;;;;;;5094569;28;20127;-70
2023/12/11 00:13:56;;;;;;;59.37;7.20;;;8.40;99.90;;;;;;5095689;28;20554;-70
2023/12/11 00:16:22;;;;;;;65.87;7.97;;;8.40;99.90;;;;;;5096048;28;20131;-70
2023/12/11 00:18:48;;;;;;;47.40;7.17;;;8.30;99.90;;;;;;5095935;28;20102;-70
2023/12/11 00:21:15;;;;;;;61.67;8.50;;;8.40;99.90;;;;;;5095992;28;20432;-70
2023/12/11 00:23:41;;;;;;;64.33;8.53;;;8.30;99.90;;;;;;5096058;28;20351;-70
2023/12/11 00:26:08;;;;;;;63.13;9.93;;;8.40;99.90;;;;;;5096375;28;20368;-70
2023/12/11 00:28:34;;;;;;;57.37;8.10;;;8.40;99.90;;;;;;5096390;28;20312;-70
2023/12/11 00:49:25;;;;;;;69.07;10.07;;;8.40;99.90;;;;;;5363194;22;20338;-69
2023/12/11 00:51:54;;;;;;;60.13;8.20;;;8.40;99.90;;;;;;5333820;22;20330;-68
2023/12/11 00:54:19;;;;;;;56.07;8.13;;;8.40;99.90;;;;;;5095517;28;20039;-70
2023/12/11 00:56:46;;;;;;;41.90;8.00;;;8.50;99.90;;;;;;5078206;28;20640;-70
2023/12/11 00:59:11;;;;;;;45.77;8.03;;;8.50;99.90;;;;;;5093969;28;20492;-70
2023/12/11 01:01:37;;;;;;;49.13;7.23;;;8.50;99.90;;;;;;5095105;28;20284;-70
2023/12/11 01:04:03;;;;;;;54.57;8.10;;;8.60;99.90;;;;;;5095032;28;20043;-70
2023/12/11 01:06:29;;;;;;;46.53;7.00;;;8.50;99.90;;;;;;5095646;28;20050;-70
2023/12/11 01:08:55;;;;;;;45.20;7.20;;;8.60;99.90;;;;;;5095801;28;20357;-70
2023/12/11 01:11:20;;;;;;;42.67;8.47;;;8.60;99.90;;;;;;5094961;28;20537;-70
2023/12/11 01:13:46;;;;;;;48.33;7.43;;;8.60;99.90;;;;;;5095699;28;20050;-70
2023/12/11 01:16:12;;;;;;;52.73;6.77;;;8.60;99.90;;;;;;5094816;28;20139;-71
2023/12/11 01:18:37;;;;;;;48.60;8.00;;;8.60;99.90;;;;;;5094843;28;20048;-70
2023/12/11 01:21:04;;;;;;;52.27;9.03;;;8.60;99.90;;;;;;5094726;28;20496;-70
2023/12/11 01:23:29;;;;;;;43.27;7.57;;;8.60;99.90;;;;;;5094423;28;20396;-70
2023/12/11 01:25:55;;;;;;;57.60;7.83;;;8.50;99.90;;;;;;5093515;28;20286;-70
2023/12/11 01:28:21;;;;;;;41.90;6.10;;;8.50;99.90;;;;;;5095317;28;20070;-70
2023/12/11 01:30:46;;;;;;;47.63;7.70;;;8.50;99.90;;;;;;5093508;28;20052;-70
2023/12/11 01:33:12;;;;;;;53.50;8.80;;;8.50;99.90;;;;;;5094806;28;20424;-72
2023/12/11 01:35:38;;;;;;;56.53;9.60;;;8.60;99.90;;;;;;5093595;28;20476;-70
2023/12/11 01:38:04;;;;;;;50.07;8.73;;;8.60;99.90;;;;;;5094749;28;20067;-70
2023/12/11 01:40:29;;;;;;;58.33;8.50;;;8.60;99.90;;;;;;5094397;28;20055;-69
2023/12/11 01:42:55;;;;;;;64.20;9.00;;;8.60;99.90;;;;;;5093479;28;20040;-69
2023/12/11 01:45:21;;;;;;;55.30;8.17;;;8.60;99.90;;;;;;5094263;28;20073;-69
2023/12/11 01:47:46;;;;;;;63.90;9.37;;;8.60;99.90;;;;;;5094294;28;20058;-69
2023/12/11 01:50:12;;;;;;;47.13;7.70;;;8.60;99.90;;;;;;5094383;28;20055;-70
2023/12/11 01:52:38;;;;;;;62.73;8.70;;;8.60;99.90;;;;;;5094038;28;20067;-69
2023/12/11 01:55:05;;;;;;;66.57;8.83;;;8.60;99.90;;;;;;5094170;28;20117;-69
2023/12/11 01:57:31;;;;;;;70.40;8.77;;;8.60;99.90;;;;;;5094159;28;20086;-69
2023/12/11 01:59:57;;;;;;;49.27;7.03;;;8.60;99.90;;;;;;5094063;28;20277;-69
2023/12/11 02:02:24;;;;;;;51.63;8.23;;;8.60;99.90;;;;;;5094068;28;20278;-69
2023/12/11 02:04:50;;;;;;;54.67;8.20;;;8.50;99.90;;;;;;5093989;28;20294;-70
2023/12/11 02:07:16;;;;;;;53.97;7.57;;;8.50;99.90;;;;;;5093960;28;20285;-69
2023/12/11 02:09:42;;;;;;;59.00;7.93;;;8.60;99.90;;;;;;5094018;28;20043;-69
2023/12/11 02:12:08;;;;;;;50.27;7.90;;;8.60;99.90;;;;;;5093973;28;20282;-69
2023/12/11 02:14:34;;;;;;;63.73;8.70;;;8.60;99.90;;;;;;5093857;28;20044;-69
2023/12/11 02:17:00;;;;;;;63.30;7.87;;;8.50;99.90;;;;;;5094209;28;20048;-69
2023/12/11 02:19:26;;;;;;;62.53;10.07;;;8.60;99.90;;;;;;5093571;28;20484;-69
2023/12/11 02:21:53;;;;;;;63.70;7.40;;;8.60;99.90;;;;;;5092859;28;20294;-69
2023/12/11 02:24:29;;;;;;;67.33;8.63;;;8.60;99.90;;;;;;5094315;28;20051;-70
2023/12/11 02:26:55;;;;;;;68.23;8.87;;;8.60;99.90;;;;;;5094124;28;20740;-69
2023/12/11 02:29:20;;;;;;;62.03;8.87;;;8.60;99.90;;;;;;5093779;28;20314;-70
2023/12/11 02:31:46;;;;;;;59.40;7.93;;;8.60;99.90;;;;;;5093764;28;20040;-69
2023/12/11 02:34:12;;;;;;;62.07;9.40;;;8.60;99.90;;;;;;5094553;28;20085;-69
2023/12/11 02:36:37;;;;;;;67.60;10.00;;;8.60;99.90;;;;;;5094220;28;20446;-69
2023/12/11 02:39:03;;;;;;;56.97;7.80;;;8.60;99.90;;;;;;5093501;28;20117;-69
2023/12/11 02:41:29;;;;;;;62.63;10.07;;;8.60;99.90;;;;;;5093756;28;20131;-70
2023/12/11 02:43:55;;;;;;;56.70;9.57;;;8.60;99.90;;;;;;5093962;28;20036;-69
2023/12/11 02:46:21;;;;;;;63.70;11.17;;;8.60;99.90;;;;;;5093968;28;20051;-70
2023/12/11 02:48:46;;;;;;;81.63;11.43;;;8.60;99.90;;;;;;5091954;28;20372;-69
2023/12/11 02:51:14;;;;;;;71.03;8.97;;;8.60;99.90;;;;;;5093675;28;20063;-70
2023/12/11 02:53:40;;;;;;;61.53;9.27;;;8.60;99.90;;;;;;5093080;28;20488;-69
2023/12/11 02:56:06;;;;;;;64.33;10.17;;;8.60;99.90;;;;;;5093231;28;20369;-69
2023/12/11 02:58:32;;;;;;;64.40;10.37;;;8.60;99.90;;;;;;5093481;28;20050;-69
2023/12/11 03:00:59;;;;;;;61.73;10.03;;;8.60;99.90;;;;;;5093999;28;20368;-69
2023/12/11 03:03:24;;;;;;;58.30;9.53;;;8.60;99.90;;;;;;5097468;28;20048;-70
2023/12/11 03:05:51;;;;;;;74.13;7.93;;;8.60;99.90;;;;;;5097294;28;20302;-69
2023/12/11 03:08:16;;;;;;;60.93;9.43;;;8.60;99.90;;;;;;5097386;28;20124;-69
2023/12/11 03:10:42;;;;;;;77.40;10.73;;;8.60;99.90;;;;;;5096951;28;20717;-70
2023/12/11 03:13:08;;;;;;;58.00;9.63;;;8.60;99.90;;;;;;5097235;28;20073;-69
2023/12/11 03:15:33;;;;;;;72.77;10.57;;;8.60;99.90;;;;;;5097247;28;20044;-69
2023/12/11 03:18:00;;;;;;;54.73;7.43;;;8.60;99.90;;;;;;5097513;28;20055;-69
2023/12/11 03:20:26;;;;;;;57.53;8.60;;;8.70;99.90;;;;;;5097139;28;20435;-70
2023/12/11 03:22:51;;;;;;;59.20;9.17;;;8.70;99.90;;;;;;5097033;28;20331;-69
2023/12/11 03:25:17;;;;;;;62.30;9.77;;;8.70;99.90;;;;;;5096690;28;20048;-70
2023/12/11 03:27:43;;;;;;;53.30;9.53;;;8.70;99.90;;;;;;5096981;28;20078;-70
2023/12/11 03:30:09;;;;;;;54.57;8.17;;;8.70;99.90;;;;;;5097225;28;20076;-69
2023/12/11 03:32:35;;;;;;;61.20;8.67;;;8.70;99.90;;;;;;5096892;28;20450;-70
2023/12/11 03:35:01;;;;;;;66.20;9.47;;;8.70;99.90;;;;;;5078717;28;20294;-70
2023/12/11 03:37:26;;;;;;;53.77;9.37;;;8.70;99.90;;;;;;5096100;28;20286;-70
2023/12/11 03:39:52;;;;;;;55.27;9.17;;;8.70;99.90;;;;;;5097569;28;20286;-69
2023/12/11 03:42:18;;;;;;;63.90;10.10;;;8.70;99.90;;;;;;5096717;28;20048;-70
2023/12/11 03:44:43;;;;;;;72.23;10.50;;;8.70;99.90;;;;;;5095712;28;20054;-70
2023/12/11 03:47:09;;;;;;;54.43;7.87;;;8.70;99.90;;;;;;5096585;28;20048;-69
2023/12/11 03:49:35;;;;;;;61.60;10.67;;;8.70;99.90;;;;;;5096576;28;20040;-70
2023/12/11 03:52:01;;;;;;;60.00;9.73;;;8.80;99.90;;;;;;5096776;28;20056;-69
2023/12/11 03:54:26;;;;;;;55.67;8.90;;;8.80;99.90;;;;;;5096433;28;20048;-69
2023/12/11 03:56:52;;;;;;;58.10;9.17;;;8.80;99.90;;;;;;5096974;28;20044;-69
2023/12/11 03:59:18;;;;;;;57.77;8.43;;;8.80;99.90;;;;;;5096328;28;20044;-70
2023/12/11 04:01:44;;;;;;;56.47;9.03;;;8.70;99.90;;;;;;5096779;28;20123;-70
2023/12/11 04:04:10;;;;;;;54.87;9.00;;;8.80;99.90;;;;;;5096789;28;20083;-70
2023/12/11 04:06:36;;;;;;;57.77;8.87;;;8.70;99.90;;;;;;5096218;28;20411;-70
2023/12/11 04:09:04;;;;;;;41.57;7.07;;;8.80;99.90;;;;;;5096247;28;20535;-70
2023/12/11 04:11:30;;;;;;;62.30;10.33;;;8.80;99.90;;;;;;5096148;28;20044;-70
2023/12/11 04:13:56;;;;;;;59.50;8.37;;;8.70;99.90;;;;;;5096110;28;20281;-70
2023/12/11 04:16:21;;;;;;;56.10;8.37;;;8.70;99.90;;;;;;5096070;28;20131;-70
2023/12/11 04:18:47;;;;;;;56.53;8.10;;;8.70;99.90;;;;;;5096555;28;20079;-69
2023/12/11 04:21:13;;;;;;;51.97;7.67;;;8.70;99.90;;;;;;5094688;28;20044;-70
2023/12/11 04:23:39;;;;;;;62.20;9.53;;;8.70;99.90;;;;;;5095550;28;20061;-70
2023/12/11 04:26:04;;;;;;;68.27;9.13;;;8.70;99.90;;;;;;5094769;28;20047;-70
2023/12/11 04:28:30;;;;;;;66.63;9.40;;;8.70;99.90;;;;;;5095579;28;20465;-69
2023/12/11 04:30:56;;;;;;;58.90;9.27;;;8.70;99.90;;;;;;5096392;28;20043;-69
2023/12/11 04:33:21;;;;;;;66.37;10.83;;;8.60;99.90;;;;;;5095542;28;20048;-69
2023/12/11 04:35:47;;;;;;;57.20;9.07;;;8.70;99.90;;;;;;5095640;28;20048;-69
2023/12/11 04:38:13;;;;;;;56.33;8.50;;;8.60;99.90;;;;;;5095717;28;20396;-69
2023/12/11 04:40:39;;;;;;;57.47;9.23;;;8.70;99.90;;;;;;5095596;28;20475;-70
2023/12/11 04:43:04;;;;;;;55.00;7.90;;;8.70;99.90;;;;;;5095518;28;20134;-69
2023/12/11 04:45:30;;;;;;;51.10;8.30;;;8.60;99.90;;;;;;5095460;28;20102;-70
2023/12/11 04:47:56;;;;;;;57.87;8.37;;;8.60;99.90;;;;;;5095463;28;20487;-69
2023/12/11 04:50:22;;;;;;;48.00;8.90;;;8.60;99.90;;;;;;5095464;28;20044;-70
2023/12/11 04:52:48;;;;;;;62.20;9.30;;;8.60;99.90;;;;;;5093900;28;20359;-70
2023/12/11 04:55:14;;;;;;;54.20;8.50;;;8.60;99.90;;;;;;5095837;28;20091;-69
2023/12/11 04:57:40;;;;;;;58.43;8.43;;;8.60;99.90;;;;;;5095213;28;20314;-70
2023/12/11 05:00:07;;;;;;;50.57;7.40;;;8.60;99.90;;;;;;5094068;28;20079;-70
2023/12/11 05:02:33;;;;;;;43.63;8.00;;;8.50;99.90;;;;;;5095085;28;20044;-70
2023/12/11 05:04:58;;;;;;;46.87;7.97;;;8.60;99.90;;;;;;5095025;28;20770;-69
2023/12/11 05:07:24;;;;;;;53.80;8.50;;;8.50;99.90;;;;;;5095062;28;20088;-70
2023/12/11 05:09:50;;;;;;;49.23;7.90;;;8.50;99.90;;;;;;5110764;28;20051;-70
2023/12/11 05:12:15;;;;;;;53.13;7.70;;;8.50;99.90;;;;;;5095223;28;20044;-70
2023/12/11 05:14:41;;;;;;;47.47;7.63;;;8.50;99.90;;;;;;5076989;28;20507;-70
2023/12/11 05:17:07;;;;;;;45.57;7.43;;;8.50;99.90;;;;;;5095434;28;20055;-70
2023/12/11 05:19:33;;;;;;;43.07;7.13;;;8.50;99.90;;;;;;5094886;28;20048;-70
2023/12/11 05:21:59;;;;;;;47.83;8.47;;;8.50;99.90;;;;;;5095622;28;20044;-70
2023/12/11 05:24:25;;;;;;;42.60;7.37;;;8.50;99.90;;;;;;5094734;28;20773;-70
2023/12/11 05:26:51;;;;;;;57.57;9.50;;;8.50;99.90;;;;;;5094715;28;20040;-70
2023/12/11 05:29:17;;;;;;;54.13;7.30;;;8.50;99.90;;;;;;5094656;28;20425;-70
2023/12/11 05:31:43;;;;;;;45.93;7.67;;;8.50;99.90;;;;;;5094553;28;20385;-70
2023/12/11 05:34:08;;;;;;;41.10;7.43;;;8.50;99.90;;;;;;5093453;28;20058;-70
2023/12/11 05:36:34;;;;;;;45.00;7.17;;;8.50;99.90;;;;;;5094484;28;20097;-70
2023/12/11 05:39:00;;;;;;;40.97;6.50;;;8.50;99.90;;;;;;5094426;28;20044;-70
2023/12/11 05:41:26;;;;;;;44.93;8.13;;;8.50;99.90;;;;;;5094946;28;20066;-70
2023/12/11 05:43:51;;;;;;;35.33;7.27;;;8.50;99.90;;;;;;5094827;28;20052;-70
2023/12/11 05:46:17;;;;;;;35.00;6.50;;;8.50;99.90;;;;;;5094293;28;20094;-70
2023/12/11 05:48:43;;;;;;;43.57;8.00;;;8.40;99.90;;;;;;5094553;28;20044;-70
2023/12/11 05:51:09;;;;;;;47.93;7.40;;;8.40;99.90;;;;;;5094476;28;20477;-70
2023/12/11 05:53:34;;;;;;;53.07;7.87;;;8.40;99.90;;;;;;5094270;28;20055;-70
2023/12/11 05:56:00;;;;;;;41.07;7.63;;;8.40;99.90;;;;;;5094171;28;20111;-70
2023/12/11 05:58:26;;;;;;;49.60;7.60;;;8.40;99.90;;;;;;5093258;28;20048;-70
2023/12/11 06:00:52;;;;;;;43.60;6.93;;;8.40;99.90;;;;;;5094091;28;20063;-70
2023/12/11 06:03:17;;;;;;;49.27;8.37;;;8.40;99.90;;;;;;5092839;28;20043;-70
2023/12/11 06:05:43;;;;;;;49.87;7.93;;;8.40;99.90;;;;;;5094003;28;20040;-70
2023/12/11 06:08:09;;;;;;;51.63;7.17;;;8.30;99.90;;;;;;5093963;28;20085;-70
2023/12/11 06:10:34;;;;;;;42.43;6.70;;;8.40;99.90;;;;;;5094502;28;20048;-70
2023/12/11 06:13:00;;;;;;;52.87;7.47;;;8.40;99.90;;;;;;5094463;28;20365;-70
2023/12/11 06:15:26;;;;;;;50.90;7.57;;;8.40;99.90;;;;;;5093876;28;20040;-69
2023/12/11 06:17:52;;;;;;;52.87;8.00;;;8.40;99.90;;;;;;5093866;28;20048;-69
2023/12/11 06:20:17;;;;;;;36.87;6.13;;;8.40;99.90;;;;;;5094385;28;20051;-69
2023/12/11 06:22:47;;;;;;;50.03;7.47;;;8.40;99.90;;;;;;5093788;28;20048;-69
2023/12/11 06:25:13;;;;;;;48.17;7.97;;;8.50;99.90;;;;;;5093685;28;20105;-69
2023/12/11 06:27:38;;;;;;;52.60;7.17;;;8.50;99.90;;;;;;5092784;28;20286;-69
2023/12/11 06:30:07;;;;;;;59.57;9.27;;;8.50;99.90;;;;;;5094627;28;20105;-69
2023/12/11 06:32:32;;;;;;;56.17;7.70;;;8.50;99.90;;;;;;5093773;28;20056;-70
2023/12/11 06:34:58;;;;;;;51.20;7.43;;;8.50;99.90;;;;;;5094541;28;20340;-70
2023/12/11 06:37:24;;;;;;;52.77;8.03;;;8.50;99.90;;;;;;5097776;28;20476;-69
2023/12/11 06:39:49;;;;;;;45.57;7.00;;;8.50;99.90;;;;;;5097942;28;20087;-68
2023/12/11 06:42:15;;;;;;;46.87;7.10;;;8.50;99.90;;;;;;5097869;28;20126;-69
2023/12/11 06:44:41;;;;;;;50.17;7.07;;;8.50;99.90;;;;;;5097780;28;20551;-69
2023/12/11 06:47:07;;;;;;;55.03;8.40;;;8.50;99.90;;;;;;5098543;28;20052;-69
2023/12/11 06:49:33;;;;;;;51.33;7.77;;;8.60;99.90;;;;;;5098330;28;20111;-69
2023/12/11 06:51:58;;;;;;;59.60;7.53;;;8.60;99.90;;;;;;5098035;28;20094;-70
2023/12/11 06:54:24;;;;;;;46.03;7.20;;;8.50;99.90;;;;;;5097685;28;20044;-74
2023/12/11 06:56:50;;;;;;;50.30;7.13;;;8.60;99.90;;;;;;5097723;28;20552;-70
2023/12/11 06:59:15;;;;;;;41.63;6.90;;;8.60;99.90;;;;;;5097545;28;20157;-71
2023/12/11 07:01:41;;;;;;;48.60;7.30;;;8.50;99.90;;;;;;5097994;28;20089;-70
2023/12/11 07:04:07;;;;;;;48.73;6.83;;;8.50;99.90;;;;;;5097186;28;20127;-70
2023/12/11 07:06:39;;;;;;;42.40;7.37;;;8.50;99.90;;;;;;5080433;28;20506;-70
2023/12/11 07:09:05;;;;;;;51.70;8.30;;;8.50;99.90;;;;;;5098237;28;20102;-70
2023/12/11 07:11:31;;;;;;;53.33;7.20;;;8.50;99.90;;;;;;5079561;28;20282;-70
2023/12/11 07:13:56;;;;;;;43.33;8.37;;;8.50;99.90;;;;;;5097785;28;20055;-70
2023/12/11 07:16:25;;;;;;;41.33;7.47;;;8.50;99.90;;;;;;5097251;28;20055;-70
2023/12/11 07:18:51;;;;;;;42.40;7.37;;;8.50;99.90;;;;;;5097514;28;20085;-71
2023/12/11 07:21:17;;;;;;;48.00;7.90;;;8.50;99.90;;;;;;5097185;28;20305;-70
2023/12/11 07:23:43;;;;;;;38.07;7.40;;;8.60;99.90;;;;;;5097073;28;20761;-70
2023/12/11 07:26:10;;;;;;;46.93;6.67;;;8.50;99.90;;;;;;5097368;28;20114;-70
2023/12/11 07:28:36;;;;;;;36.97;6.13;;;8.50;99.90;;;;;;5096052;28;20289;-70
2023/12/11 07:31:03;;;;;;;43.20;6.23;;;8.50;99.90;;;;;;5096989;28;20691;-70
2023/12/11 07:33:29;;;;;;;31.67;5.27;;;8.50;99.90;;;;;;5096932;28;20285;-70
2023/12/11 07:35:55;;;;;;;35.97;5.90;;;8.60;99.90;;;;;;5097687;28;20274;-70
2023/12/11 07:38:21;;;;;;;31.73;5.27;;;8.50;99.90;;;;;;5096537;28;20401;-70
2023/12/11 07:40:47;;;;;;;29.27;5.60;;;8.50;99.90;;;;;;5096782;28;20282;-70
2023/12/11 07:43:13;;;;;;;38.30;6.13;;;8.60;99.90;;;;;;5097338;28;20040;-71
2023/12/11 07:45:38;;;;;;;34.33;5.97;;;8.60;99.90;;;;;;5095477;28;20599;-70
2023/12/11 07:48:04;;;;;;;36.23;6.93;;;8.60;99.90;;;;;;5095455;28;20081;-70
2023/12/11 07:50:31;;;;;;;39.03;6.37;;;8.60;99.90;;;;;;5096663;28;20054;-70
2023/12/11 07:52:57;;;;;;;41.23;6.73;;;8.60;99.90;;;;;;5096351;28;20774;-70
2023/12/11 07:55:23;;;;;;;38.23;7.30;;;8.60;99.90;;;;;;5096554;28;20282;-71
2023/12/11 07:57:49;;;;;;;35.97;6.80;;;8.60;99.90;;;;;;5095470;28;20373;-70
2023/12/11 08:00:15;;;;;;;33.53;7.23;;;8.60;99.90;;;;;;5096439;28;20093;-71
2023/12/11 08:02:41;;;;;;;30.30;7.00;;;8.60;99.90;;;;;;5096369;28;20048;-70
2023/12/11 08:05:07;;;;;;;39.40;7.77;;;8.60;99.90;;;;;;5096382;28;20044;-70
2023/12/11 08:07:33;;;;;;;32.37;6.27;;;8.60;99.90;;;;;;5096563;28;20289;-70
2023/12/11 08:09:59;;;;;;;27.83;5.83;;;8.60;99.90;;;;;;5096222;28;20343;-70
2023/12/11 08:12:26;;;;;;;32.97;6.40;;;8.60;99.90;;;;;;5096250;28;20286;-70
2023/12/11 08:14:51;;;;;;;39.00;7.37;;;8.60;99.90;;;;;;5096187;28;20055;-70
2023/12/11 08:17:17;;;;;;;33.47;7.03;;;8.60;99.90;;;;;;5096065;28;20274;-71
2023/12/11 08:19:43;;;;;;;31.50;5.90;;;8.70;99.90;;;;;;5095937;28;20052;-70
2023/12/11 08:22:08;;;;;;;36.27;7.57;;;8.70;99.90;;;;;;5096509;28;20047;-71
2023/12/11 08:24:35;;;;;;;43.47;7.47;;;8.70;99.90;;;;;;5095960;28;20040;-70
2023/12/11 08:27:00;;;;;;;43.80;6.63;;;8.60;99.90;;;;;;5095924;28;20056;-71
2023/12/11 08:29:26;;;;;;;44.93;7.20;;;8.70;99.90;;;;;;5095192;28;20285;-70
2023/12/11 08:31:52;;;;;;;39.03;7.40;;;8.60;99.90;;;;;;5095856;28;20039;-70
2023/12/11 08:34:19;;;;;;;39.60;7.90;;;8.60;99.90;;;;;;5095694;28;20044;-70
2023/12/11 08:36:45;;;;;;;38.93;7.77;;;8.60;99.90;;;;;;5095711;28;20087;-70
2023/12/11 08:39:11;;;;;;;41.97;7.37;;;8.60;99.90;;;;;;5095671;28;20317;-70
2023/12/11 08:41:37;;;;;;;34.87;7.03;;;8.60;99.90;;;;;;5095862;28;20131;-70
2023/12/11 08:44:03;;;;;;;47.37;9.40;;;8.60;99.90;;;;;;5095498;28;20044;-71
2023/12/11 08:46:31;;;;;;;33.93;8.30;;;8.70;99.90;;;;;;5095540;28;20073;-70
2023/12/11 08:48:56;;;;;;;47.57;8.20;;;8.60;99.90;;;;;;5096287;28;20286;-70
2023/12/11 08:51:22;;;;;;;33.07;7.60;;;8.60;99.90;;;;;;5095303;28;20286;-70
2023/12/11 08:53:48;;;;;;;38.57;7.43;;;8.70;99.90;;;;;;5095406;28;20048;-70
2023/12/11 08:56:14;;;;;;;50.63;7.27;;;8.60;99.90;;;;;;5095588;28;20392;-70
2023/12/11 08:58:40;;;;;;;45.27;7.23;;;8.70;99.90;;;;;;5094426;28;20055;-70
2023/12/11 09:01:06;;;;;;;45.60;7.67;;;8.70;99.90;;;;;;5095188;28;20278;-70
2023/12/11 09:03:31;;;;;;;34.60;6.70;;;8.70;99.90;;;;;;5095150;28;20048;-70
2023/12/11 09:05:57;;;;;;;43.17;6.10;;;8.80;99.90;;;;;;5095076;28;20040;-70
2023/12/11 09:08:23;;;;;;;41.30;6.20;;;8.70;99.90;;;;;;5095081;28;20418;-70
2023/12/11 09:10:49;;;;;;;35.67;6.23;;;8.70;99.90;;;;;;5094006;28;20127;-70
2023/12/11 09:13:15;;;;;;;36.97;6.23;;;8.80;99.90;;;;;;5095295;28;20040;-70
2023/12/11 09:15:41;;;;;;;35.43;5.40;;;8.80;99.90;;;;;;5094885;28;20282;-70
2023/12/11 09:18:07;;;;;;;35.23;5.00;;;8.80;99.90;;;;;;5094839;28;20123;-71
2023/12/11 09:20:33;;;;;;;29.37;5.23;;;8.80;99.90;;;;;;5095157;28;20043;-70
2023/12/11 09:22:59;;;;;;;31.90;4.80;;;8.90;99.90;;;;;;5094819;28;20286;-70
2023/12/11 09:25:25;;;;;;;27.93;4.10;;;8.90;99.90;;;;;;5094632;28;20036;-70
2023/12/11 09:27:50;;;;;;;22.17;3.90;;;8.90;99.90;;;;;;5094708;28;20480;-70
2023/12/11 09:30:16;;;;;;;27.60;4.60;;;8.90;99.90;;;;;;5094615;28;20090;-70
2023/12/11 09:32:42;;;;;;;23.00;3.97;;;8.90;99.90;;;;;;5094658;28;20047;-70
2023/12/11 09:35:08;;;;;;;28.37;3.20;;;8.90;99.90;;;;;;5094547;28;20065;-71
2023/12/11 09:37:34;;;;;;;20.03;4.07;;;8.90;99.90;;;;;;5095103;28;20051;-70
2023/12/11 09:39:59;;;;;;;22.93;3.30;;;9.00;99.90;;;;;;5094511;28;20128;-70
2023/12/11 09:42:26;;;;;;;21.87;3.37;;;8.90;99.90;;;;;;5094725;28;20560;-70
2023/12/11 09:44:52;;;;;;;20.23;3.60;;;9.00;99.90;;;;;;5094356;28;20040;-70
2023/12/11 09:47:26;;;;;;;31.33;4.13;;;9.00;99.90;;;;;;5094681;28;20638;-70
2023/12/11 09:49:53;;;;;;;30.00;3.77;;;9.00;99.90;;;;;;5094965;28;20278;-70
2023/12/11 09:52:19;;;;;;;30.93;3.83;;;9.00;99.90;;;;;;5092654;28;20324;-70
2023/12/11 09:54:47;;;;;;;28.93;4.03;;;9.00;99.90;;;;;;5094824;28;20611;-70
2023/12/11 09:57:14;;;;;;;37.20;4.93;;;9.10;99.90;;;;;;5094223;28;20278;-71
2023/12/11 09:59:42;;;;;;;33.17;5.10;;;9.10;99.90;;;;;;5094159;28;20282;-70
2023/12/11 10:02:15;;;;;;;29.07;4.80;;;9.10;99.90;;;;;;5094117;28;20286;-71
2023/12/11 10:05:03;;;;;;;25.00;3.87;;;9.10;99.90;;;;;;5094094;28;20381;-70
2023/12/11 10:07:29;;;;;;;31.70;4.87;;;9.10;99.90;;;;;;5094121;28;20281;-70
2023/12/11 10:09:55;;;;;;;28.00;4.27;;;9.10;99.90;;;;;;5093954;28;20328;-70
2023/12/11 10:12:21;;;;;;;37.07;4.43;;;9.10;99.90;;;;;;5093975;28;20279;-70
2023/12/11 10:15:01;;;;;;;35.97;5.67;;;9.20;99.90;;;;;;5094021;28;20433;-70
2023/12/11 10:17:27;;;;;;;39.37;4.90;;;9.10;99.90;;;;;;5093004;28;20052;-71
2023/12/11 10:19:53;;;;;;;39.97;5.80;;;9.20;99.90;;;;;;5094756;28;20340;-70
2023/12/11 10:22:27;;;;;;;35.13;4.97;;;9.20;99.90;;;;;;5093855;28;20754;-71
2023/12/11 10:24:54;;;;;;;38.13;4.90;;;9.20;99.90;;;;;;5093802;28;20044;-70
2023/12/11 10:27:24;;;;;;;30.50;5.43;;;9.20;99.90;;;;;;5093824;28;20768;-70
2023/12/11 10:30:14;;;;;;;33.90;4.20;;;9.20;99.90;;;;;;5093814;28;20373;-70
2023/12/11 10:32:40;;;;;;;27.00;4.33;;;9.20;99.90;;;;;;5093888;28;20479;-70
2023/12/11 10:35:07;;;;;;;30.77;4.20;;;9.20;99.90;;;;;;5092748;28;20404;-70
2023/12/11 10:37:36;;;;;;;26.13;4.90;;;9.20;99.90;;;;;;5093720;28;20407;-70
2023/12/11 10:40:03;;;;;;;37.27;4.60;;;9.20;99.90;;;;;;5093661;28;20280;-70
2023/12/11 10:42:29;;;;;;;29.17;4.33;;;9.20;99.90;;;;;;5093578;28;20745;-70
2023/12/11 10:44:56;;;;;;;29.83;4.93;;;9.20;99.90;;;;;;5094106;28;20607;-70
2023/12/11 10:47:22;;;;;;;27.60;5.43;;;9.20;99.90;;;;;;5093573;28;20282;-71
2023/12/11 10:49:48;;;;;;;30.50;4.97;;;9.20;99.90;;;;;;5093567;28;20266;-70
2023/12/11 10:52:14;;;;;;;41.53;6.63;;;9.20;99.90;;;;;;5093160;28;20286;-71
2023/12/11 10:54:43;;;;;;;27.97;4.83;;;9.20;99.90;;;;;;5093482;28;20799;-70
2023/12/11 10:57:16;;;;;;;27.97;3.90;;;9.30;99.90;;;;;;5092232;28;20282;-70
2023/12/11 10:59:43;;;;;;;25.57;3.73;;;9.20;99.90;;;;;;5093057;28;20786;-71
2023/12/11 11:02:13;;;;;;;18.40;3.00;;;9.20;99.90;;;;;;5093461;28;20327;-71
2023/12/11 11:04:43;;;;;;;17.07;2.83;;;9.20;99.90;;;;;;5094178;28;20294;-70
2023/12/11 11:07:16;;;;;;;17.33;3.00;;;9.20;99.90;;;;;;5093695;28;20278;-70
2023/12/11 11:10:20;;;;;;;20.77;2.90;;;9.20;99.90;;;;;;5093998;28;20714;-70
2023/12/11 11:13:05;;;;;;;17.60;2.80;;;9.20;99.90;;;;;;5093948;28;20305;-70
2023/12/11 11:15:31;;;;;;;;;;;9.20;99.90;;;;;;5094079;28;20313;-70
2023/12/11 11:18:09;;;;;;;13.47;2.60;;;9.20;99.90;;;;;;5093330;28;20371;-70
2023/12/11 11:20:37;;;;;;;15.50;2.70;;;9.20;99.90;;;;;;5093316;28;20055;-71
2023/12/11 11:23:22;;;;;;;19.30;2.97;;;9.10;99.90;;;;;;5096423;28;20366;-70
2023/12/11 11:25:52;;;;;;;21.80;3.55;;;9.20;99.90;;;;;;5097022;28;20394;-70
2023/12/11 11:28:37;;;;;;;28.00;3.67;;;9.20;99.90;;;;;;5097252;28;20124;-71
2023/12/11 11:31:05;;;;;;;25.87;4.87;;;9.20;99.90;;;;;;5097776;28;20282;-70
2023/12/11 11:33:51;;;;;;;30.03;5.37;;;9.10;99.90;;;;;;5096850;28;20281;-71
2023/12/11 11:36:19;;;;;;;30.87;5.40;;;9.20;99.90;;;;;;5096924;28;20320;-71
2023/12/11 11:38:54;;;;;;;27.23;5.03;;;9.20;99.90;;;;;;5096785;28;20282;-71
2023/12/11 11:41:27;;;;;;;34.13;4.82;;;9.20;99.90;;;;;;5096771;28;20301;-71
2023/12/11 11:44:06;;;;;;;31.83;5.20;;;9.10;99.90;;;;;;5097275;28;20048;-71
2023/12/11 11:47:00;;;;;;;33.17;4.43;;;9.10;99.90;;;;;;5096643;28;20282;-70
2023/12/11 11:49:31;;;;;;;30.27;4.60;;;9.10;99.90;;;;;;5096458;28;20294;-70
2023/12/11 11:51:58;;;;;;;28.97;4.97;;;9.00;99.90;;;;;;5096399;28;20286;-70
2023/12/11 11:54:25;;;;;;;25.13;4.37;;;9.00;99.90;;;;;;5096841;28;20306;-71
2023/12/11 11:56:51;;;;;;;31.50;4.43;;;9.00;99.90;;;;;;5096562;28;20294;-70
2023/12/11 11:59:20;;;;;;;26.43;4.23;;;8.90;99.90;;;;;;5096453;28;20314;-70
2023/12/11 12:01:55;;;;;;;23.57;3.37;;;8.90;99.90;;;;;;5096418;28;20725;-70
2023/12/11 12:04:32;;;;;;;27.07;3.53;;;8.90;99.90;;;;;;5097173;28;20293;-71
2023/12/11 12:07:05;;;;;;;32.30;4.17;;;8.90;99.90;;;;;;5096899;28;20617;-70
2023/12/11 12:09:32;;;;;;;16.33;2.57;;;8.90;99.90;;;;;;5097145;28;20273;-71
2023/12/11 12:11:59;;;;;;;20.13;2.77;;;8.90;99.90;;;;;;5095250;28;20286;-71
2023/12/11 12:14:28;;;;;;;22.60;3.37;;;8.90;99.90;;;;;;5096197;28;20290;-71
2023/12/11 12:16:55;;;;;;;18.70;2.60;;;8.90;99.90;;;;;;5096119;28;20282;-71
2023/12/11 12:19:33;;;;;;;19.60;2.87;;;8.80;99.90;;;;;;5096118;28;20365;-72
2023/12/11 12:22:01;;;;;;;13.57;1.93;;;8.90;99.90;;;;;;5095943;28;20283;-71
2023/12/11 12:24:27;;;;;;;16.07;3.03;;;8.90;99.90;;;;;;5095868;28;20662;-71
2023/12/11 12:27:06;;;;;;;24.37;3.27;;;8.80;99.90;;;;;;5094948;28;20293;-71
2023/12/11 12:29:33;;;;;;;16.63;3.50;;;8.80;99.90;;;;;;5096174;28;20055;-71
2023/12/11 12:31:59;;;;;;;17.90;3.03;;;8.80;99.90;;;;;;5095899;28;20754;-71
2023/12/11 12:34:30;;;;;;;13.87;3.43;;;8.80;99.90;;;;;;5094549;28;20274;-71
2023/12/11 12:36:57;;;;;;;13.40;2.20;;;8.80;99.90;;;;;;5095535;28;20848;-71
2023/12/11 12:39:23;;;;;;;14.30;2.43;;;8.80;99.90;;;;;;5095661;28;20773;-72
2023/12/11 12:41:49;;;;;;;13.37;2.60;;;8.70;99.90;;;;;;5095303;28;20289;-71
2023/12/11 12:44:17;;;;;;;16.87;2.17;;;8.70;99.90;;;;;;5096093;28;20456;-71
2023/12/11 12:46:43;;;;;;;14.87;1.87;;;8.70;99.90;;;;;;5094570;28;20289;-71
2023/12/11 12:49:16;;;;;;;16.90;2.20;;;8.70;99.90;;;;;;5096020;28;20292;-71
2023/12/11 12:51:53;;;;;;;9.73;1.80;;;8.60;99.90;;;;;;5094160;28;20286;-71
2023/12/11 12:54:19;;;;;;;14.77;2.10;;;8.60;99.90;;;;;;5094761;28;20291;-71
2023/12/11 12:56:56;;;;;;;16.53;2.33;;;8.60;99.90;;;;;;5095338;28;20373;-71
2023/12/11 12:59:23;;;;;;;17.07;2.20;;;8.60;99.90;;;;;;5095646;28;20615;-71
2023/12/11 13:01:49;;;;;;;15.43;2.00;;;8.60;99.90;;;;;;5095214;28;20316;-71
2023/12/11 13:04:15;;;;;;;15.50;2.57;;;8.60;99.90;;;;;;5095180;28;20279;-71
2023/12/11 13:06:41;;;;;;;11.13;1.80;;;8.60;99.90;;;;;;5095182;28;20131;-71